createdAt,value
2022-10-27T00:00:48.669Z,82.60
2022-10-27T00:03:19.835Z,82.70
2022-10-27T00:05:48.145Z,82.90
2022-10-27T00:08:16.948Z,82.70
2022-10-27T00:10:45.131Z,82.70
2022-10-27T00:13:13.789Z,82.80
2022-10-27T00:15:41.409Z,82.90
2022-10-27T00:18:12.017Z,82.90
2022-10-27T00:20:41.795Z,83.00
2022-10-27T00:23:10.844Z,83.00
2022-10-27T00:25:37.847Z,83.00
2022-10-27T00:28:04.703Z,83.10
2022-10-27T00:30:31.377Z,83.10
2022-10-27T00:32:58.091Z,83.10
2022-10-27T00:35:24.818Z,83.10
2022-10-27T00:37:51.929Z,83.10
2022-10-27T00:40:18.902Z,83.20
2022-10-27T00:42:45.631Z,83.30
2022-10-27T00:45:12.411Z,83.30
2022-10-27T00:47:39.779Z,83.40
2022-10-27T00:50:13.492Z,83.30
2022-10-27T00:52:40.738Z,83.40
2022-10-27T00:55:21.644Z,83.40
2022-10-27T00:57:51.963Z,83.50
2022-10-27T01:00:19.421Z,83.60
2022-10-27T01:02:47.108Z,83.60
2022-10-27T01:05:16.840Z,83.70
2022-10-27T01:07:44.780Z,83.80
2022-10-27T01:10:13.303Z,83.80
2022-10-27T01:12:40.555Z,83.90
2022-10-27T01:15:08.246Z,83.90
2022-10-27T01:17:53.397Z,83.90
2022-10-27T01:20:34.878Z,83.80
2022-10-27T01:23:37.470Z,83.90
2022-10-27T01:26:27.311Z,83.80
2022-10-27T01:29:21.758Z,84.00
2022-10-27T01:32:01.856Z,84.10
2022-10-27T01:34:57.660Z,84.10
2022-10-27T01:37:37.526Z,84.00
2022-10-27T01:40:23.701Z,84.10
2022-10-27T01:42:53.473Z,84.10
2022-10-27T01:45:31.675Z,84.20
2022-10-27T01:47:59.641Z,84.40
2022-10-27T01:50:45.259Z,84.50
2022-10-27T01:53:25.190Z,84.60
2022-10-27T01:56:03.922Z,84.50
2022-10-27T01:59:10.099Z,84.60
2022-10-27T02:02:04.922Z,84.40
2022-10-27T02:04:58.235Z,84.40
2022-10-27T02:07:49.735Z,84.60
2022-10-27T02:10:22.288Z,84.50
2022-10-27T02:12:53.827Z,84.60
2022-10-27T02:15:48.510Z,84.60
2022-10-27T02:18:25.763Z,84.40
2022-10-27T02:20:58.129Z,84.70
2022-10-27T02:23:28.619Z,84.70
2022-10-27T02:26:22.800Z,84.70
2022-10-27T02:28:59.429Z,84.60
2022-10-27T02:31:47.483Z,84.80
2022-10-27T02:34:15.556Z,84.90
2022-10-27T02:36:42.360Z,84.80
2022-10-27T02:39:09.150Z,84.80
2022-10-27T02:41:35.928Z,84.90
2022-10-27T02:44:02.791Z,84.90
2022-10-27T02:46:32.520Z,85.00
2022-10-27T02:48:59.355Z,85.10
2022-10-27T02:51:26.030Z,85.20
2022-10-27T02:53:52.706Z,85.20
2022-10-27T02:56:19.503Z,85.30
2022-10-27T02:58:46.340Z,85.30
2022-10-27T03:01:13.069Z,85.30
2022-10-27T03:03:41.751Z,85.40
2022-10-27T03:06:08.684Z,85.50
2022-10-27T03:08:35.518Z,85.60
2022-10-27T03:11:02.427Z,85.70
2022-10-27T03:13:29.103Z,85.70
2022-10-27T03:15:55.782Z,85.70
2022-10-27T03:18:22.572Z,85.70
2022-10-27T03:20:49.254Z,85.70
2022-10-27T03:23:19.204Z,85.80
2022-10-27T03:25:52.151Z,85.90
2022-10-27T03:28:19.347Z,85.90
2022-10-27T03:30:46.085Z,86.00
2022-10-27T03:33:12.824Z,86.00
2022-10-27T03:35:39.568Z,86.10
2022-10-27T03:38:06.371Z,86.20
2022-10-27T03:40:33.073Z,86.10
2022-10-27T03:43:02.590Z,86.10
2022-10-27T03:45:29.407Z,86.10
2022-10-27T03:48:04.474Z,86.20
2022-10-27T03:50:31.881Z,86.20
2022-10-27T03:52:59.045Z,86.30
2022-10-27T03:55:26.152Z,86.30
2022-10-27T03:57:53.334Z,86.40
2022-10-27T04:00:20.452Z,86.30
2022-10-27T04:02:47.255Z,86.40
2022-10-27T04:05:14.080Z,86.40
2022-10-27T04:07:46.222Z,86.50
2022-10-27T04:10:14.550Z,86.50
2022-10-27T04:12:55.755Z,86.50
2022-10-27T04:15:26.809Z,86.40
2022-10-27T04:17:55.283Z,86.60
2022-10-27T04:20:22.851Z,86.70
2022-10-27T04:22:50.027Z,86.70
2022-10-27T04:25:17.155Z,86.70
2022-10-27T04:27:44.105Z,86.70
2022-10-27T04:30:11.383Z,86.80
2022-10-27T04:32:38.264Z,86.80
2022-10-27T04:35:06.795Z,86.80
2022-10-27T04:37:34.278Z,86.70
2022-10-27T04:40:01.429Z,86.70
2022-10-27T04:42:28.271Z,86.80
2022-10-27T04:44:55.068Z,86.80
2022-10-27T04:47:21.744Z,86.90
2022-10-27T04:49:48.465Z,86.90
2022-10-27T04:52:15.403Z,86.90
2022-10-27T04:54:42.102Z,86.90
2022-10-27T04:57:08.863Z,87.00
2022-10-27T04:59:38.479Z,87.00
2022-10-27T05:02:05.202Z,87.10
2022-10-27T05:04:32.035Z,87.10
2022-10-27T05:06:58.905Z,87.20
2022-10-27T05:09:25.575Z,87.10
2022-10-27T05:11:52.368Z,87.20
2022-10-27T05:14:19.144Z,87.90
2022-10-27T05:16:45.883Z,87.10
2022-10-27T05:19:13.837Z,87.10
2022-10-27T05:21:40.563Z,87.10
2022-10-27T05:24:07.613Z,87.20
2022-10-27T05:26:37.139Z,87.10
2022-10-27T05:29:04.920Z,87.10
2022-10-27T05:31:31.601Z,87.20
2022-10-27T05:36:29.987Z,87.20
2022-10-27T05:38:57.095Z,87.20
2022-10-27T05:41:23.756Z,87.20
2022-10-27T05:43:50.530Z,87.20
2022-10-27T05:46:20.042Z,87.20
2022-10-27T05:48:46.806Z,87.20
2022-10-27T05:51:14.761Z,87.20
2022-10-27T05:53:43.610Z,87.20
2022-10-27T05:56:10.459Z,87.10
2022-10-27T05:58:37.221Z,87.00
2022-10-27T06:01:04.001Z,87.00
2022-10-27T06:03:30.821Z,87.00
2022-10-27T06:05:58.274Z,86.90
2022-10-27T06:08:25.102Z,87.00
2022-10-27T06:10:51.809Z,87.00
2022-10-27T06:13:19.203Z,87.00
2022-10-27T06:15:46.083Z,87.00
2022-10-27T06:18:13.424Z,87.00
2022-10-27T06:20:41.647Z,87.10
2022-10-27T06:23:08.581Z,87.90
2022-10-27T06:25:38.720Z,87.00
2022-10-27T06:28:05.542Z,87.00
2022-10-27T06:30:32.235Z,87.00
2022-10-27T06:32:59.017Z,87.00
2022-10-27T06:35:25.693Z,87.10
2022-10-27T06:37:52.851Z,87.80
2022-10-27T06:40:20.617Z,87.10
2022-10-27T06:43:05.718Z,87.10
2022-10-27T06:45:33.201Z,87.10
2022-10-27T06:48:02.228Z,87.10
2022-10-27T06:50:29.497Z,87.10
2022-10-27T06:52:59.346Z,87.10
2022-10-27T06:55:26.093Z,87.90
2022-10-27T06:57:53.282Z,87.00
2022-10-27T07:00:21.070Z,87.00
2022-10-27T07:02:48.469Z,86.90
2022-10-27T07:05:15.332Z,86.90
2022-10-27T07:07:53.429Z,86.80
2022-10-27T07:10:21.227Z,86.80
2022-10-27T07:12:57.420Z,86.80
2022-10-27T07:15:26.334Z,86.80
2022-10-27T07:18:01.730Z,86.60
2022-10-27T07:20:30.347Z,86.50
2022-10-27T07:22:58.179Z,86.40
2022-10-27T07:25:27.211Z,86.30
2022-10-27T07:27:58.293Z,86.30
2022-10-27T07:30:31.017Z,86.10
2022-10-27T07:32:58.303Z,86.10
2022-10-27T07:35:25.602Z,86.00
2022-10-27T07:37:55.541Z,86.00
2022-10-27T07:40:27.353Z,85.90
2022-10-27T07:42:59.986Z,85.80
2022-10-27T07:45:30.061Z,86.40
2022-10-27T07:47:58.464Z,85.50
2022-10-27T07:50:33.182Z,85.60
2022-10-27T07:53:01.079Z,85.50
2022-10-27T07:55:29.093Z,85.50
2022-10-27T07:58:00.569Z,85.40
2022-10-27T08:00:28.820Z,85.20
2022-10-27T08:02:56.220Z,85.10
2022-10-27T08:05:23.227Z,85.00
2022-10-27T08:07:50.287Z,85.10
2022-10-27T08:10:17.478Z,84.60
2022-10-27T08:12:47.223Z,83.80
2022-10-27T08:15:14.017Z,83.30
2022-10-27T08:17:40.863Z,83.00
2022-10-27T08:20:09.402Z,82.90
2022-10-27T08:22:36.392Z,82.60
2022-10-27T08:25:05.966Z,82.10
2022-10-27T08:27:35.803Z,81.90
2022-10-27T08:30:02.636Z,80.20
2022-10-27T08:32:29.438Z,79.90
2022-10-27T08:34:56.534Z,79.40
2022-10-27T08:37:23.254Z,79.40
2022-10-27T08:39:49.919Z,79.20
2022-10-27T08:43:01.488Z,79.50
2022-10-27T08:45:34.800Z,79.80
2022-10-27T08:48:02.036Z,79.20
2022-10-27T08:50:40.167Z,78.70
2022-10-27T08:53:13.507Z,78.70
2022-10-27T08:55:53.246Z,78.50
2022-10-27T08:58:39.254Z,78.70
2022-10-27T09:01:39.410Z,78.60
2022-10-27T09:04:12.245Z,78.60
2022-10-27T09:06:51.191Z,78.60
2022-10-27T09:09:33.088Z,78.20
2022-10-27T09:12:16.204Z,78.00
2022-10-27T09:14:49.032Z,78.10
2022-10-27T09:17:28.073Z,77.80
2022-10-27T09:20:01.630Z,77.30
2022-10-27T09:22:33.416Z,77.20
2022-10-27T09:25:05.118Z,77.00
2022-10-27T09:27:33.358Z,76.60
2022-10-27T09:30:10.508Z,76.50
2022-10-27T09:32:42.771Z,76.30
2022-10-27T09:35:21.675Z,76.10
2022-10-27T09:37:48.691Z,75.90
2022-10-27T09:40:21.131Z,75.30
2022-10-27T09:42:52.193Z,75.10
2022-10-27T09:45:27.595Z,75.00
2022-10-27T09:48:03.054Z,74.70
2022-10-27T09:50:40.041Z,74.80
2022-10-27T09:53:37.358Z,74.80
2022-10-27T09:56:05.167Z,75.00
2022-10-27T09:58:32.797Z,74.50
2022-10-27T10:01:01.582Z,74.40
2022-10-27T10:03:28.510Z,74.50
2022-10-27T10:06:05.481Z,74.30
2022-10-27T10:08:35.322Z,74.10
2022-10-27T10:11:05.630Z,72.90
2022-10-27T10:13:37.455Z,72.60
2022-10-27T10:16:09.913Z,72.10
2022-10-27T10:18:38.893Z,71.50
2022-10-27T10:21:09.244Z,71.10
2022-10-27T10:24:00.030Z,70.80
2022-10-27T10:26:29.566Z,71.50
2022-10-27T10:29:07.533Z,71.20
2022-10-27T10:31:34.424Z,71.20
2022-10-27T10:34:08.809Z,71.40
2022-10-27T10:36:38.126Z,70.90
2022-10-27T10:39:24.875Z,70.90
2022-10-27T10:42:10.079Z,71.00
2022-10-27T10:44:40.173Z,70.90
2022-10-27T10:47:25.888Z,70.20
2022-10-27T10:49:59.090Z,70.60
2022-10-27T10:52:32.745Z,70.60
2022-10-27T10:55:11.206Z,70.40
2022-10-27T10:57:46.071Z,70.20
2022-10-27T11:00:17.875Z,70.20
2022-10-27T11:03:02.838Z,70.00
2022-10-27T11:05:33.173Z,69.90
2022-10-27T11:08:00.722Z,70.10
2022-10-27T11:10:33.344Z,70.20
2022-10-27T11:13:15.424Z,69.70
2022-10-27T11:16:01.010Z,69.90
2022-10-27T11:18:40.316Z,69.90
2022-10-27T11:21:38.950Z,69.90
2022-10-27T11:24:08.920Z,70.00
2022-10-27T11:26:38.826Z,69.60
2022-10-27T11:29:23.916Z,69.50
2022-10-27T11:32:18.562Z,69.60
2022-10-27T11:35:03.589Z,69.60
2022-10-27T11:37:41.084Z,69.70
2022-10-27T11:40:27.149Z,69.70
2022-10-27T11:43:09.328Z,69.70
2022-10-27T11:45:53.605Z,69.50
2022-10-27T11:48:24.855Z,69.30
2022-10-27T11:51:07.146Z,69.30
2022-10-27T11:53:39.028Z,69.30
2022-10-27T11:56:26.948Z,69.40
2022-10-27T11:59:04.643Z,69.00
2022-10-27T12:01:41.832Z,69.00
2022-10-27T12:04:27.777Z,69.20
2022-10-27T12:07:11.053Z,69.20
2022-10-27T12:09:52.841Z,69.30
2022-10-27T12:12:22.659Z,69.20
2022-10-27T12:14:49.394Z,69.40
2022-10-27T12:17:24.066Z,69.40
2022-10-27T12:19:56.555Z,69.20
2022-10-27T12:22:27.612Z,69.20
2022-10-27T12:25:14.607Z,69.40
2022-10-27T12:27:47.389Z,69.60
2022-10-27T12:30:18.587Z,69.70
2022-10-27T12:33:09.417Z,69.70
2022-10-27T12:35:56.774Z,69.90
2022-10-27T12:38:34.504Z,70.00
2022-10-27T12:41:01.190Z,70.00
2022-10-27T12:43:37.493Z,70.00
2022-10-27T12:46:23.444Z,69.90
2022-10-27T12:49:04.768Z,69.70
2022-10-27T12:51:46.512Z,69.90
2022-10-27T12:54:43.232Z,69.90
2022-10-27T12:57:42.507Z,70.00
2022-10-27T13:00:20.306Z,70.20
2022-10-27T13:03:26.677Z,70.00
2022-10-27T13:06:08.378Z,70.10
2022-10-27T13:11:22.075Z,70.30
2022-10-27T13:14:01.843Z,70.30
2022-10-27T13:16:53.001Z,70.20
2022-10-27T13:19:38.082Z,70.20
2022-10-27T13:22:21.376Z,70.30
2022-10-27T13:24:54.233Z,70.30
2022-10-27T13:27:45.556Z,70.20
2022-10-27T13:30:20.977Z,70.20
2022-10-27T13:32:47.610Z,70.30
2022-10-27T13:35:14.329Z,70.30
2022-10-27T13:37:49.949Z,70.40
2022-10-27T13:40:19.614Z,70.20
2022-10-27T13:42:47.294Z,70.20
2022-10-27T13:45:35.195Z,70.30
2022-10-27T13:48:08.032Z,70.40
2022-10-27T13:50:48.434Z,70.40
2022-10-27T13:53:15.311Z,70.60
2022-10-27T13:56:00.096Z,70.70
2022-10-27T13:58:51.434Z,70.80
2022-10-27T14:01:43.097Z,70.80
2022-10-27T14:04:22.108Z,70.90
2022-10-27T14:09:45.361Z,70.80
2022-10-27T14:12:38.041Z,70.70
2022-10-27T14:15:32.512Z,70.80
2022-10-27T14:17:59.867Z,70.90
2022-10-27T14:20:37.861Z,70.90
2022-10-27T14:23:07.607Z,70.80
2022-10-27T14:25:34.387Z,70.80
2022-10-27T14:28:20.895Z,70.70
2022-10-27T14:31:11.716Z,70.70
2022-10-27T14:33:38.578Z,70.80
2022-10-27T14:36:26.306Z,70.70
2022-10-27T14:39:13.418Z,70.70
2022-10-27T14:41:49.349Z,70.80
2022-10-27T14:44:28.496Z,70.80
2022-10-27T14:47:00.091Z,70.90
2022-10-27T14:49:33.763Z,70.90
2022-10-27T14:52:06.389Z,70.90
2022-10-27T14:54:33.875Z,71.00
2022-10-27T14:57:29.690Z,71.10
2022-10-27T14:59:59.313Z,71.20
2022-10-27T15:02:27.056Z,71.20
2022-10-27T15:04:54.099Z,71.20
2022-10-27T15:07:22.039Z,72.10
2022-10-27T15:09:52.938Z,71.30
2022-10-27T15:12:27.558Z,71.40
2022-10-27T15:14:58.619Z,71.40
2022-10-27T15:17:37.031Z,71.50
2022-10-27T15:20:06.828Z,71.70
2022-10-27T15:22:35.543Z,71.60
2022-10-27T15:25:04.064Z,71.60
2022-10-27T15:27:33.604Z,71.70
2022-10-27T15:30:02.093Z,71.70
2022-10-27T15:32:58.632Z,71.90
2022-10-27T15:35:44.623Z,71.90
2022-10-27T15:38:38.209Z,72.00
2022-10-27T15:41:26.834Z,72.20
2022-10-27T15:44:03.489Z,72.20
2022-10-27T15:46:36.692Z,72.20
2022-10-27T15:49:03.590Z,72.20
2022-10-27T15:51:45.525Z,72.20
2022-10-27T15:54:48.765Z,72.20
2022-10-27T15:57:36.339Z,72.20
2022-10-27T16:00:22.180Z,72.20
2022-10-27T16:02:58.387Z,72.20
2022-10-27T16:05:31.047Z,72.20
2022-10-27T16:08:20.777Z,72.20
2022-10-27T16:10:52.448Z,72.30
2022-10-27T16:13:21.684Z,72.40
2022-10-27T16:15:49.465Z,72.50
2022-10-27T16:18:23.083Z,72.60
2022-10-27T16:20:49.907Z,72.60
2022-10-27T16:23:17.153Z,72.80
2022-10-27T16:25:45.961Z,72.80
2022-10-27T16:28:25.702Z,72.90
2022-10-27T16:30:53.137Z,73.00
2022-10-27T16:33:24.332Z,73.10
2022-10-27T16:35:51.243Z,73.00
2022-10-27T16:38:18.102Z,73.10
2022-10-27T16:40:47.766Z,73.20
2022-10-27T16:43:24.771Z,73.20
2022-10-27T16:45:51.472Z,73.30
2022-10-27T16:48:18.209Z,73.40
2022-10-27T16:50:46.039Z,73.40
2022-10-27T16:53:13.896Z,73.40
2022-10-27T16:55:43.754Z,74.30
2022-10-27T16:58:10.568Z,73.50
2022-10-27T17:00:39.757Z,73.60
2022-10-27T17:03:06.419Z,73.60
2022-10-27T17:05:35.535Z,73.70
2022-10-27T17:08:05.301Z,73.70
2022-10-27T17:10:32.086Z,73.70
2022-10-27T17:12:59.529Z,73.70
2022-10-27T17:15:26.291Z,73.80
2022-10-27T17:17:53.101Z,73.90
2022-10-27T17:20:22.480Z,73.80
2022-10-27T17:22:49.338Z,73.80
2022-10-27T17:25:16.341Z,73.80
2022-10-27T17:27:43.055Z,73.80
2022-10-27T17:30:10.358Z,73.80
2022-10-27T17:32:37.186Z,73.90
2022-10-27T17:35:04.434Z,74.00
2022-10-27T17:37:31.548Z,73.90
2022-10-27T17:39:58.663Z,74.00
2022-10-27T17:42:25.543Z,74.10
2022-10-27T17:44:52.516Z,74.20
2022-10-27T17:47:19.265Z,74.20
2022-10-27T17:49:46.021Z,74.30
2022-10-27T17:52:12.698Z,74.40
2022-10-27T17:54:41.663Z,74.70
2022-10-27T17:57:09.935Z,74.60
2022-10-27T17:59:36.773Z,74.70
2022-10-27T18:02:06.230Z,74.70
2022-10-27T18:04:35.204Z,74.90
2022-10-27T18:07:02.572Z,75.00
2022-10-27T18:09:29.244Z,75.00
2022-10-27T18:11:55.946Z,75.10
2022-10-27T18:14:24.238Z,75.20
2022-10-27T18:16:51.033Z,75.20
2022-10-27T18:19:17.752Z,75.20
2022-10-27T18:21:46.491Z,75.30
2022-10-27T18:24:14.905Z,75.30
2022-10-27T18:26:45.658Z,75.30
2022-10-27T18:29:14.049Z,75.40
2022-10-27T18:31:41.404Z,75.40
2022-10-27T18:34:16.135Z,75.50
2022-10-27T18:36:44.716Z,75.60
2022-10-27T18:39:19.475Z,75.60
2022-10-27T18:41:49.186Z,75.60
2022-10-27T18:44:16.307Z,75.70
2022-10-27T18:46:43.647Z,75.70
2022-10-27T18:49:15.942Z,75.60
2022-10-27T18:51:47.441Z,75.70
2022-10-27T18:54:17.131Z,75.60
2022-10-27T18:56:43.884Z,75.70
2022-10-27T18:59:14.049Z,75.70
2022-10-27T19:01:43.408Z,75.60
2022-10-27T19:04:10.345Z,75.60
2022-10-27T19:06:38.030Z,75.80
2022-10-27T19:09:05.471Z,75.80
2022-10-27T19:11:35.066Z,75.90
2022-10-27T19:14:02.884Z,75.90
2022-10-27T19:16:32.756Z,76.00
2022-10-27T19:19:01.039Z,76.10
2022-10-27T19:21:29.034Z,76.00
2022-10-27T19:23:58.206Z,76.20
2022-10-27T19:26:27.422Z,76.30
2022-10-27T19:28:55.546Z,76.30
2022-10-27T19:31:24.897Z,76.30
2022-10-27T19:33:55.262Z,76.40
2022-10-27T19:36:28.840Z,76.50
2022-10-27T19:38:57.237Z,76.40
2022-10-27T19:41:27.003Z,76.50
2022-10-27T19:43:55.814Z,76.50
2022-10-27T19:46:24.162Z,76.50
2022-10-27T19:48:52.469Z,76.60
2022-10-27T19:51:22.877Z,76.70
2022-10-27T19:53:50.046Z,76.70
2022-10-27T19:56:20.085Z,76.70
2022-10-27T19:58:58.294Z,76.80
2022-10-27T20:01:27.158Z,76.70
2022-10-27T20:03:54.041Z,76.80
2022-10-27T20:06:21.113Z,76.70
2022-10-27T20:08:55.002Z,76.80
2022-10-27T20:11:25.049Z,76.80
2022-10-27T20:13:54.886Z,76.90
2022-10-27T20:16:23.877Z,76.90
2022-10-27T20:18:50.721Z,77.00
2022-10-27T20:21:17.533Z,76.90
2022-10-27T20:23:45.280Z,76.90
2022-10-27T20:26:30.575Z,77.00
2022-10-27T20:29:00.205Z,77.20
2022-10-27T20:31:27.156Z,77.20
2022-10-27T20:33:54.190Z,77.20
2022-10-27T20:36:21.660Z,77.40
2022-10-27T20:38:52.785Z,77.40
2022-10-27T20:41:21.859Z,77.50
2022-10-27T20:43:51.866Z,77.70
2022-10-27T20:46:18.549Z,77.60
2022-10-27T20:48:51.573Z,77.70
2022-10-27T20:51:18.720Z,77.80
2022-10-27T20:53:45.547Z,77.90
2022-10-27T20:56:37.410Z,77.80
2022-10-27T20:59:05.535Z,77.90
2022-10-27T21:01:42.882Z,78.00
2022-10-27T21:04:10.835Z,78.00
2022-10-27T21:06:42.529Z,78.20
2022-10-27T21:09:12.527Z,78.30
2022-10-27T21:11:40.348Z,78.20
2022-10-27T21:14:07.906Z,78.30
2022-10-27T21:16:34.761Z,78.40
2022-10-27T21:19:04.020Z,78.40
2022-10-27T21:21:31.841Z,78.50
2022-10-27T21:24:00.030Z,78.50
2022-10-27T21:26:27.149Z,78.50
2022-10-27T21:28:55.976Z,78.50
2022-10-27T21:31:24.766Z,78.70
2022-10-27T21:33:51.917Z,78.70
2022-10-27T21:36:18.954Z,78.80
2022-10-27T21:38:47.626Z,78.90
2022-10-27T21:41:17.030Z,79.00
2022-10-27T21:43:45.542Z,79.10
2022-10-27T21:46:14.879Z,79.20
2022-10-27T21:48:41.976Z,80.00
2022-10-27T21:51:11.483Z,79.20
2022-10-27T21:53:38.159Z,79.30
2022-10-27T21:56:07.932Z,79.40
2022-10-27T21:58:41.873Z,79.50
2022-10-27T22:01:17.808Z,79.50
2022-10-27T22:03:49.327Z,79.50
2022-10-27T22:06:18.367Z,79.50
2022-10-27T22:08:46.036Z,79.50
2022-10-27T22:11:16.625Z,80.40
2022-10-27T22:13:43.872Z,79.70
2022-10-27T22:16:13.276Z,79.70
2022-10-27T22:18:43.517Z,79.80
2022-10-27T22:21:12.903Z,79.70
2022-10-27T22:23:39.831Z,79.90
2022-10-27T22:26:12.494Z,80.70
2022-10-27T22:28:40.135Z,80.80
2022-10-27T22:31:08.636Z,79.90
2022-10-27T22:33:35.915Z,80.10
2022-10-27T22:36:08.558Z,80.20
2022-10-27T22:38:35.630Z,80.40
2022-10-27T22:41:10.459Z,80.40
2022-10-27T22:43:37.674Z,80.50
2022-10-27T22:46:05.247Z,80.50
2022-10-27T22:48:36.815Z,80.50
2022-10-27T22:51:09.586Z,80.50
2022-10-27T22:53:37.907Z,80.50
2022-10-27T22:56:21.500Z,80.60
2022-10-27T22:58:57.820Z,80.60
2022-10-27T23:01:28.939Z,80.60
2022-10-27T23:03:58.453Z,80.70
2022-10-27T23:06:27.545Z,80.70
2022-10-27T23:09:03.454Z,80.80
2022-10-27T23:11:33.043Z,80.80
2022-10-27T23:14:00.083Z,80.90
2022-10-27T23:16:29.806Z,80.90
2022-10-27T23:18:57.527Z,81.10
2022-10-27T23:21:25.130Z,81.30
2022-10-27T23:23:52.281Z,81.20
2022-10-27T23:26:21.100Z,81.20
2022-10-27T23:28:49.796Z,81.30
2022-10-27T23:31:17.222Z,81.30
2022-10-27T23:33:43.940Z,81.40
2022-10-27T23:36:12.212Z,81.40
2022-10-27T23:38:39.498Z,81.50
2022-10-27T23:41:06.355Z,81.50
2022-10-27T23:43:33.110Z,81.60
2022-10-27T23:46:02.463Z,81.70
2022-10-27T23:48:30.336Z,81.70
2022-10-27T23:51:00.593Z,81.70
2022-10-27T23:53:28.867Z,81.80
2022-10-27T23:56:00.691Z,81.80
2022-10-27T23:58:33.146Z,82.00
